Time;durP1;ratioP1;P1;durP2;ratioP2;P2;SDS_P1;SDS_P2;PMS_P1;PMS_P2;Temp;Humidity;BMP_temperature;BMP_pressure;BME280_temperature;BME280_humidity;BME280_pressure;Samples;Min_cycle;Max_cycle;Signal;HPM_P1;HPM_P2
2022/04/16 04:01:25;;;;;;;41.20;21.58;;;6.80;99.90;;;;;;5576639;23;20089;-83
2022/04/16 04:03:51;;;;;;;42.00;21.15;;;6.80;99.90;;;;;;4996703;28;20045;-81
2022/04/16 04:06:17;;;;;;;42.22;21.60;;;6.80;99.90;;;;;;5013688;28;20084;-83
2022/04/16 04:08:42;;;;;;;45.20;21.38;;;6.80;99.90;;;;;;5013643;28;20445;-83
2022/04/16 04:11:08;;;;;;;43.42;21.50;;;6.80;99.90;;;;;;5014257;28;20175;-83
2022/04/16 04:13:34;;;;;;;43.80;20.88;;;6.80;99.90;;;;;;5013757;28;20042;-83
2022/04/16 04:15:59;;;;;;;39.55;21.17;;;6.80;99.90;;;;;;5014525;28;20431;-83
2022/04/16 04:18:26;;;;;;;41.67;21.40;;;6.80;99.90;;;;;;5015005;28;20572;-84
2022/04/16 04:20:53;;;;;;;41.33;21.17;;;6.80;99.90;;;;;;5013713;28;20121;-82
2022/04/16 04:23:19;;;;;;;39.08;20.55;;;6.80;99.90;;;;;;5015274;28;20042;-82
2022/04/16 04:25:45;;;;;;;39.40;20.98;;;6.80;99.90;;;;;;5013644;28;20054;-83
2022/04/16 04:28:11;;;;;;;47.28;21.05;;;6.80;99.90;;;;;;5013917;28;20041;-83
2022/04/16 04:30:37;;;;;;;41.00;20.45;;;6.80;99.90;;;;;;4997132;28;20085;-84
2022/04/16 04:33:03;;;;;;;38.88;20.98;;;6.80;99.90;;;;;;5013640;28;20053;-82
2022/04/16 04:35:30;;;;;;;39.30;20.48;;;6.80;99.90;;;;;;5013735;28;20038;-84
2022/04/16 04:37:56;;;;;;;51.85;24.17;;;6.80;99.90;;;;;;5014991;28;20046;-83
2022/04/16 04:40:22;;;;;;;43.70;21.58;;;6.80;99.90;;;;;;5016903;28;20397;-84
2022/04/16 04:42:48;;;;;;;41.38;21.42;;;6.80;99.90;;;;;;5017512;28;20038;-83
2022/04/16 04:45:15;;;;;;;46.13;21.40;;;6.80;99.90;;;;;;5017204;28;20103;-82
2022/04/16 04:47:41;;;;;;;41.92;21.42;;;6.90;99.90;;;;;;5017702;28;20042;-84
2022/04/16 04:50:07;;;;;;;41.92;21.17;;;6.90;99.90;;;;;;5000284;28;20061;-83
2022/04/16 04:52:36;;;;;;;42.80;21.95;;;6.90;99.90;;;;;;5018535;28;20390;-83
2022/04/16 04:55:03;;;;;;;45.55;22.38;;;6.90;99.90;;;;;;5018768;28;20129;-82
2022/04/16 04:57:28;;;;;;;47.22;22.33;;;6.90;99.90;;;;;;5017304;28;20038;-84
2022/04/16 04:59:54;;;;;;;47.42;23.20;;;6.90;99.90;;;;;;5000767;28;20042;-84
2022/04/16 05:02:20;;;;;;;45.60;22.60;;;6.90;99.90;;;;;;5017110;28;20048;-83
2022/04/16 05:04:46;;;;;;;47.72;23.25;;;6.90;99.90;;;;;;5016914;28;20050;-83
2022/04/16 05:07:12;;;;;;;48.78;24.15;;;7.00;99.90;;;;;;5016904;28;20037;-85
2022/04/16 05:09:38;;;;;;;46.25;22.85;;;7.00;99.90;;;;;;5016674;28;20508;-84
2022/04/16 05:12:05;;;;;;;43.28;22.10;;;7.00;99.90;;;;;;5017219;28;20056;-84
2022/04/16 05:14:32;;;;;;;45.17;22.63;;;7.10;99.90;;;;;;5016017;28;20038;-84
2022/04/16 05:16:58;;;;;;;46.03;22.45;;;7.10;99.90;;;;;;5016413;28;20080;-84
2022/04/16 05:19:23;;;;;;;43.88;22.52;;;7.10;99.90;;;;;;5016605;28;20046;-84
2022/04/16 05:21:49;;;;;;;46.10;23.13;;;7.20;99.90;;;;;;5016146;28;20049;-83
2022/04/16 05:24:15;;;;;;;46.90;22.33;;;7.20;99.90;;;;;;5000132;28;20050;-82
2022/04/16 05:26:40;;;;;;;41.45;21.58;;;7.30;99.90;;;;;;5018010;28;20037;-84
2022/04/16 05:29:06;;;;;;;41.90;21.23;;;7.30;99.90;;;;;;5017871;28;20045;-83
2022/04/16 05:31:33;;;;;;;39.30;20.42;;;7.30;99.90;;;;;;5016579;28;20028;-82
2022/04/16 05:36:44;;;;;;;37.47;20.50;;;7.40;99.90;;;;;;5018040;28;20069;-83
2022/04/16 05:39:09;;;;;;;38.35;21.33;;;7.40;99.90;;;;;;5018101;28;20045;-83
2022/04/16 05:41:35;;;;;;;39.40;20.92;;;7.50;99.90;;;;;;5016420;28;20401;-83
2022/04/16 05:44:02;;;;;;;38.00;20.77;;;7.50;99.90;;;;;;5016071;28;20485;-83
2022/04/16 05:46:28;;;;;;;38.42;20.67;;;7.50;99.90;;;;;;5017051;28;20385;-86
2022/04/16 05:48:54;;;;;;;38.75;20.77;;;7.60;99.90;;;;;;5016335;28;20037;-83
2022/04/16 05:51:21;;;;;;;37.67;20.67;;;7.60;99.90;;;;;;5015031;28;20049;-84
2022/04/16 05:53:48;;;;;;;39.42;20.40;;;7.70;99.90;;;;;;5016188;28;20128;-85
2022/04/16 05:56:14;;;;;;;36.28;19.77;;;7.70;99.90;;;;;;5016493;28;20057;-83
2022/04/16 05:58:40;;;;;;;35.90;20.77;;;7.80;99.90;;;;;;5016351;28;20069;-84
2022/04/16 06:01:07;;;;;;;35.55;19.63;;;7.80;99.90;;;;;;5017034;28;20041;-85
2022/04/16 06:03:34;;;;;;;33.00;19.15;;;7.80;99.90;;;;;;5016081;28;20034;-85
2022/04/16 06:06:00;;;;;;;34.90;19.13;;;7.80;99.90;;;;;;5015569;28;20088;-84
2022/04/16 06:08:26;;;;;;;34.47;18.80;;;7.80;99.90;;;;;;5015283;28;20038;-84
2022/04/16 06:10:52;;;;;;;32.72;19.00;;;7.90;99.90;;;;;;5014627;28;20034;-83
2022/04/16 06:13:18;;;;;;;32.88;19.08;;;7.80;99.90;;;;;;4999245;28;20041;-83
2022/04/16 06:15:43;;;;;;;32.60;17.77;;;7.80;99.90;;;;;;5015629;28;20036;-85
2022/04/16 06:18:13;;;;;;;33.20;17.63;;;7.90;99.90;;;;;;5014964;28;20092;-84
2022/04/16 06:20:38;;;;;;;33.22;17.02;;;7.90;99.90;;;;;;5015611;28;20038;-83
2022/04/16 06:23:05;;;;;;;27.58;15.25;;;7.90;99.90;;;;;;5015320;28;20045;-85
2022/04/16 06:25:31;;;;;;;28.27;15.68;;;7.90;99.90;;;;;;4999725;28;20050;-85
2022/04/16 06:27:57;;;;;;;27.60;14.65;;;8.00;99.90;;;;;;5017092;28;20041;-84
2022/04/16 06:30:24;;;;;;;26.50;14.98;;;8.00;99.90;;;;;;5000251;28;20054;-82
2022/04/16 06:32:49;;;;;;;24.13;13.98;;;8.10;99.90;;;;;;5015351;28;20077;-84
2022/04/16 06:35:15;;;;;;;23.20;13.43;;;8.10;99.90;;;;;;5016361;28;20074;-84
2022/04/16 06:37:44;;;;;;;24.48;13.60;;;8.20;99.90;;;;;;4999000;28;20042;-85
2022/04/16 06:40:11;;;;;;;25.42;14.30;;;8.30;99.90;;;;;;5023138;28;20045;-82
2022/04/16 06:42:37;;;;;;;25.33;14.20;;;8.40;99.90;;;;;;5029221;28;20041;-80
2022/04/16 06:45:08;;;;;;;24.17;14.05;;;8.40;99.90;;;;;;5016655;28;20096;-85
2022/04/16 06:47:34;;;;;;;25.75;14.55;;;8.40;99.90;;;;;;5016345;28;20045;-83
2022/04/16 06:50:01;;;;;;;23.33;13.80;;;8.50;99.90;;;;;;5016478;28;20038;-82
2022/04/16 06:52:27;;;;;;;23.55;14.32;;;8.50;99.90;;;;;;5016678;28;20100;-83
2022/04/16 06:54:53;;;;;;;26.25;13.73;;;8.60;99.90;;;;;;5015408;28;20479;-83
2022/04/16 06:57:18;;;;;;;24.98;13.65;;;8.60;99.90;;;;;;5016263;28;20049;-85
2022/04/16 06:59:44;;;;;;;24.80;14.25;;;8.60;99.90;;;;;;5014859;28;20397;-84
2022/04/16 07:02:10;;;;;;;21.77;12.48;;;8.70;99.90;;;;;;5015130;28;20034;-83
2022/04/16 07:04:37;;;;;;;22.38;12.68;;;8.70;99.90;;;;;;5013707;28;20045;-84
2022/04/16 07:07:04;;;;;;;22.05;12.20;;;8.70;99.90;;;;;;5014229;28;20046;-86
2022/04/16 07:09:30;;;;;;;22.38;11.80;;;8.70;99.90;;;;;;5014383;28;20076;-84
2022/04/16 07:11:55;;;;;;;27.05;12.38;;;8.70;99.90;;;;;;4997464;28;20049;-82
2022/04/16 07:14:21;;;;;;;24.45;12.68;;;8.70;99.90;;;;;;4997556;28;20056;-81
2022/04/16 07:16:47;;;;;;;21.30;12.13;;;8.80;99.90;;;;;;4997270;28;20140;-81
2022/04/16 07:19:13;;;;;;;23.90;12.38;;;8.80;99.90;;;;;;5013114;28;20498;-82
2022/04/16 07:21:39;;;;;;;23.08;11.95;;;8.90;99.90;;;;;;5012706;28;20076;-82
2022/04/16 07:24:05;;;;;;;20.38;10.77;;;9.00;99.90;;;;;;5013326;28;20052;-84
2022/04/16 07:26:30;;;;;;;19.23;11.90;;;9.00;99.90;;;;;;4996823;28;20046;-83
2022/04/16 07:28:56;;;;;;;20.55;11.57;;;9.00;99.90;;;;;;5013179;28;20041;-83
2022/04/16 07:31:22;;;;;;;19.75;10.85;;;9.00;99.90;;;;;;5013668;28;20081;-84
2022/04/16 07:33:47;;;;;;;20.02;11.63;;;9.10;99.90;;;;;;5014221;28;20069;-85
2022/04/16 07:36:13;;;;;;;20.52;11.43;;;9.10;99.90;;;;;;4997476;28;20081;-83
2022/04/16 07:38:38;;;;;;;17.92;10.60;;;9.10;99.90;;;;;;5014097;28;20196;-85
2022/04/16 07:41:04;;;;;;;21.92;11.63;;;9.20;99.90;;;;;;5014091;28;20041;-82
2022/04/16 07:43:30;;;;;;;20.20;11.95;;;9.30;99.90;;;;;;4998337;28;20089;-83
2022/04/16 07:45:56;;;;;;;18.77;10.18;;;9.40;99.90;;;;;;4998510;28;20093;-83
2022/04/16 07:48:21;;;;;;;20.15;10.43;;;9.40;99.90;;;;;;5014649;28;20409;-83
2022/04/16 07:50:47;;;;;;;20.13;10.65;;;9.50;99.90;;;;;;5013918;28;20042;-83
2022/04/16 07:53:13;;;;;;;20.50;10.75;;;9.50;99.90;;;;;;5014762;28;20038;-83
2022/04/16 07:55:38;;;;;;;20.02;10.02;;;9.60;99.90;;;;;;5014027;28;20034;-85
2022/04/16 07:58:04;;;;;;;21.95;10.90;;;9.60;99.90;;;;;;5013680;28;20049;-81
2022/04/16 08:00:30;;;;;;;18.33;9.73;;;9.70;99.90;;;;;;4997431;28;20072;-83
2022/04/16 08:02:55;;;;;;;17.45;10.20;;;9.70;99.90;;;;;;5013530;28;20050;-84
2022/04/16 08:05:21;;;;;;;18.55;10.63;;;9.80;99.90;;;;;;5015093;28;20054;-82
2022/04/16 08:07:46;;;;;;;17.23;9.90;;;9.90;99.90;;;;;;5013818;28;20061;-85
2022/04/16 08:10:12;;;;;;;18.60;11.23;;;10.00;99.90;;;;;;4997071;28;20042;-81
2022/04/16 08:12:38;;;;;;;19.30;9.98;;;10.10;99.90;;;;;;5013801;28;20038;-83
2022/04/16 08:15:05;;;;;;;15.30;9.60;;;10.10;99.90;;;;;;4995840;28;20401;-81
2022/04/16 08:17:31;;;;;;;15.90;9.40;;;10.20;99.90;;;;;;5014947;28;20121;-86
2022/04/16 08:19:56;;;;;;;14.50;8.68;;;10.30;99.90;;;;;;5014727;28;20050;-86
2022/04/16 08:22:22;;;;;;;16.98;9.43;;;10.30;99.90;;;;;;5016080;28;20042;-85
2022/04/16 08:27:54;;;;;;;17.42;9.35;;;10.50;99.90;;;;;;4941134;29;20048;-84
2022/04/16 08:30:19;;;;;;;17.20;8.93;;;10.60;99.90;;;;;;4957589;28;20050;-83
2022/04/16 08:32:45;;;;;;;15.45;8.85;;;10.70;99.90;;;;;;4986508;28;20049;-84
2022/04/16 08:35:15;;;;;;;14.52;8.00;;;11.20;99.90;;;;;;5018774;28;20042;-84
2022/04/16 08:37:41;;;;;;;15.75;8.73;;;12.00;99.90;;;;;;5001141;28;20038;-85
2022/04/16 08:40:09;;;;;;;15.43;8.73;;;13.00;99.90;;;;;;5017556;28;20045;-84
2022/04/16 08:42:37;;;;;;;16.08;8.77;;;13.80;99.90;;;;;;4999969;28;20374;-84
2022/04/16 08:45:05;;;;;;;13.55;8.27;;;14.50;99.90;;;;;;5001941;28;20100;-83
2022/04/16 08:47:31;;;;;;;15.40;8.43;;;14.80;99.90;;;;;;5018020;28;20117;-84
2022/04/16 08:49:59;;;;;;;14.50;8.55;;;14.80;99.90;;;;;;4999624;28;20046;-83
2022/04/16 08:52:30;;;;;;;12.98;7.88;;;14.90;99.90;;;;;;5017001;28;20086;-83
2022/04/16 08:54:59;;;;;;;13.98;7.60;;;15.00;99.90;;;;;;5015135;28;20121;-84
2022/04/16 08:57:26;;;;;;;14.02;8.27;;;14.60;99.90;;;;;;5015789;28;20483;-84
2022/04/16 08:59:52;;;;;;;14.85;8.02;;;14.10;99.90;;;;;;5014169;28;20049;-85
2022/04/16 09:02:19;;;;;;;11.93;7.38;;;13.90;99.90;;;;;;5013708;28;20459;-85
2022/04/16 09:04:47;;;;;;;13.52;8.57;;;13.60;99.90;;;;;;5015661;28;20099;-86
2022/04/16 09:07:14;;;;;;;10.57;7.32;;;13.80;99.90;;;;;;5014138;28;20044;-85
2022/04/16 09:09:40;;;;;;;11.27;6.88;;;14.10;99.90;;;;;;5014006;28;20057;-84
2022/04/16 09:12:18;;;;;;;11.48;7.10;;;14.60;99.90;;;;;;5015288;28;20041;-84
2022/04/16 09:14:45;;;;;;;12.57;6.45;;;15.00;99.90;;;;;;4996655;28;20042;-85
2022/04/16 09:17:18;;;;;;;9.52;5.82;;;15.20;99.90;;;;;;5015310;28;20046;-87
2022/04/16 09:19:54;;;;;;;10.45;6.47;;;15.40;99.90;;;;;;5014310;28;20045;-87
2022/04/16 09:22:33;;;;;;;;;;;15.20;99.90;;;;;;5014715;28;20186;-88
2022/04/16 09:24:59;;;;;;;8.38;5.18;;;14.90;99.90;;;;;;5014022;28;19918;-86
2022/04/16 09:27:24;;;;;;;9.63;5.88;;;14.60;99.90;;;;;;5018523;28;20041;-87
2022/04/16 09:29:52;;;;;;;8.68;4.85;;;14.20;99.90;;;;;;5001018;28;20105;-87
2022/04/16 09:32:22;;;;;;;9.23;5.05;;;13.80;99.90;;;;;;5001572;28;20038;-86
2022/04/16 09:34:48;;;;;;;7.43;4.90;;;13.60;99.90;;;;;;5001359;28;20096;-86
2022/04/16 09:37:14;;;;;;;7.93;4.72;;;13.70;99.90;;;;;;5017659;28;20425;-85
2022/04/16 09:39:40;;;;;;;8.60;5.03;;;13.70;99.90;;;;;;5017440;28;20030;-86
2022/04/16 09:42:05;;;;;;;8.63;5.00;;;13.70;99.90;;;;;;5001456;28;20148;-86
2022/04/16 09:44:31;;;;;;;8.93;5.25;;;13.90;99.90;;;;;;5018968;28;20038;-86
2022/04/16 09:46:57;;;;;;;9.93;5.35;;;14.00;99.90;;;;;;5018486;28;20090;-87
2022/04/16 09:49:24;;;;;;;6.68;4.60;;;14.30;99.90;;;;;;5018174;28;20490;-85
2022/04/16 09:51:50;;;;;;;8.05;4.60;;;14.20;99.90;;;;;;5019321;28;20038;-86
2022/04/16 09:54:17;;;;;;;7.13;4.45;;;14.30;99.90;;;;;;5019215;28;20477;-86
2022/04/16 09:56:46;;;;;;;7.85;5.00;;;14.60;99.90;;;;;;5018420;28;20032;-85
2022/04/16 09:59:13;;;;;;;7.68;3.60;;;14.80;99.90;;;;;;5017664;28;20042;-86
2022/04/16 10:01:48;;;;;;;5.88;3.40;;;15.00;99.90;;;;;;5019640;28;20030;-86
2022/04/16 10:04:35;;;;;;;6.18;3.60;;;14.80;99.90;;;;;;5020067;28;20042;-88
2022/04/16 10:07:01;;;;;;;6.65;3.55;;;14.80;99.90;;;;;;5017912;28;20367;-87
2022/04/16 10:09:28;;;;;;;5.38;3.05;;;14.80;99.90;;;;;;5018909;28;20145;-90
2022/04/16 10:15:18;;;;;;;9.48;3.30;;;14.90;99.90;;;;;;5019965;28;20073;-91
2022/04/16 10:17:51;;;;;;;5.13;3.03;;;15.10;99.90;;;;;;5019685;28;20116;-87
2022/04/16 10:20:22;;;;;;;5.68;2.80;;;15.10;99.90;;;;;;5018222;28;20133;-84
2022/04/16 10:22:55;;;;;;;3.55;2.03;;;15.30;99.90;;;;;;5016917;28;20034;-88
2022/04/16 10:25:47;;;;;;;3.55;1.88;;;15.50;99.90;;;;;;5018376;28;20041;-89
2022/04/16 10:28:25;;;;;;;4.03;2.00;;;15.60;99.90;;;;;;5014849;28;20080;-88
2022/04/16 10:30:53;;;;;;;3.30;1.75;;;15.80;99.90;;;;;;5000803;28;20136;-89
2022/04/16 10:33:21;;;;;;;6.18;2.40;;;15.80;99.90;;;;;;5000636;28;20052;-87
2022/04/16 10:35:54;;;;;;;4.68;1.85;;;16.00;99.70;;;;;;5016726;28;20386;-87
2022/04/16 10:38:36;;;;;;;4.25;2.00;;;15.60;98.10;;;;;;5015844;28;20042;-87
2022/04/16 10:41:10;;;;;;;6.13;2.30;;;15.50;94.70;;;;;;5000820;28;20054;-86
2022/04/16 10:43:35;;;;;;;4.00;1.88;;;15.40;93.60;;;;;;5017130;28;20049;-85
2022/04/16 10:46:43;;;;;;;3.95;1.80;;;15.40;94.60;;;;;;5000773;28;20513;-91
2022/04/16 10:49:23;;;;;;;3.95;2.35;;;15.50;94.80;;;;;;4971391;28;20113;-91
2022/04/16 10:51:52;;;;;;;4.03;2.17;;;15.50;95.90;;;;;;5002437;28;20046;-90
2022/04/16 10:54:36;;;;;;;4.20;2.20;;;15.60;95.40;;;;;;5002870;28;20383;-91
2022/04/16 10:57:11;;;;;;;4.87;1.70;;;15.70;94.80;;;;;;5001887;28;20041;-89
2022/04/16 10:59:42;;;;;;;4.40;1.58;;;15.70;93.70;;;;;;5018270;28;20120;-85
2022/04/16 11:02:25;;;;;;;6.00;1.90;;;15.90;93.10;;;;;;5016531;28;20056;-87
2022/04/16 11:05:02;;;;;;;4.88;1.80;;;16.10;93.90;;;;;;5018501;28;20041;-87
2022/04/16 11:07:29;;;;;;;6.60;1.70;;;16.40;95.20;;;;;;5018644;28;20072;-87
2022/04/16 11:09:57;;;;;;;2.97;1.35;;;16.50;93.50;;;;;;5017764;28;20517;-85
2022/04/16 11:12:23;;;;;;;2.30;1.30;;;16.50;92.20;;;;;;5017318;28;20117;-87
2022/04/16 11:14:50;;;;;;;2.30;1.23;;;16.60;90.90;;;;;;5017826;28;20048;-89
2022/04/16 11:17:16;;;;;;;2.08;1.10;;;16.80;90.20;;;;;;5018131;28;20128;-89
2022/04/16 11:19:48;;;;;;;2.33;1.20;;;17.00;90.30;;;;;;5017963;28;20372;-84
2022/04/16 11:22:14;;;;;;;2.10;1.17;;;16.90;87.40;;;;;;5016749;28;20084;-85
2022/04/16 11:24:40;;;;;;;3.42;1.35;;;17.00;85.10;;;;;;5015769;28;20037;-88
2022/04/16 11:35:24;;;;;;;4.78;1.77;;;16.80;75.80;;;;;;5016503;28;20041;-84
2022/04/16 11:37:54;;;;;;;4.22;1.63;;;16.80;72.70;;;;;;5016587;28;20049;-87
2022/04/16 11:40:19;;;;;;;3.03;1.50;;;16.90;75.50;;;;;;5020337;28;20041;-83
2022/04/16 11:42:45;;;;;;;1.98;1.30;;;17.20;73.20;;;;;;5004089;28;20056;-89
2022/04/16 11:45:13;;;;;;;3.58;1.20;;;17.10;68.60;;;;;;5023907;28;20100;-85
2022/04/16 11:47:39;;;;;;;6.53;1.30;;;17.40;70.00;;;;;;5015760;28;20109;-87
2022/04/16 11:50:06;;;;;;;8.23;3.60;;;17.40;66.80;;;;;;5012174;28;20426;-82
2022/04/16 11:52:41;;;;;;;3.25;1.35;;;17.60;64.30;;;;;;5007233;28;20049;-89
2022/04/16 11:55:34;;;;;;;2.65;1.00;;;17.60;59.60;;;;;;5005720;28;20046;-87
2022/04/16 11:58:00;;;;;;;5.72;1.05;;;17.40;54.50;;;;;;5005020;28;20390;-87
2022/04/16 12:00:28;;;;;;;2.20;0.82;;;17.20;56.70;;;;;;5018945;28;20049;-93
2022/04/16 12:02:57;;;;;;;2.05;0.82;;;17.10;55.10;;;;;;5000177;28;20038;-89
2022/04/16 12:05:29;;;;;;;3.75;0.77;;;17.20;54.40;;;;;;5000061;28;20052;-89
2022/04/16 12:07:55;;;;;;;2.38;1.10;;;17.20;53.80;;;;;;5017478;28;20042;-88
2022/04/16 12:10:23;;;;;;;4.55;1.00;;;17.20;54.50;;;;;;5016100;28;20034;-85
2022/04/16 12:12:52;;;;;;;1.50;0.80;;;17.30;55.20;;;;;;5016343;28;20133;-86
2022/04/16 12:15:26;;;;;;;1.30;0.98;;;17.30;54.60;;;;;;5017121;28;20048;-89
2022/04/16 12:17:54;;;;;;;1.88;0.88;;;17.40;53.50;;;;;;5016638;28;20057;-82
2022/04/16 12:20:21;;;;;;;3.67;0.80;;;17.60;55.00;;;;;;5016042;28;20021;-87
2022/04/16 12:22:48;;;;;;;2.83;0.80;;;17.70;54.70;;;;;;5015125;28;20098;-85
2022/04/16 12:25:18;;;;;;;1.58;0.95;;;17.80;53.60;;;;;;5015564;28;20040;-86
2022/04/16 12:27:46;;;;;;;3.40;1.00;;;17.80;52.70;;;;;;5015501;28;20492;-85
2022/04/16 12:30:13;;;;;;;2.05;1.00;;;17.90;53.00;;;;;;4998522;28;20045;-85
2022/04/16 12:32:39;;;;;;;2.83;0.80;;;18.10;53.20;;;;;;5015035;28;20070;-84
2022/04/16 12:35:05;;;;;;;1.63;0.75;;;18.30;52.20;;;;;;5015775;28;20100;-86
2022/04/16 12:37:30;;;;;;;3.00;0.88;;;18.50;52.50;;;;;;5016578;28;20050;-85
2022/04/16 12:39:56;;;;;;;3.50;0.82;;;18.50;52.00;;;;;;5016352;28;20041;-85
2022/04/16 12:42:22;;;;;;;1.63;0.80;;;18.30;51.30;;;;;;5016261;28;20037;-85
2022/04/16 12:44:47;;;;;;;3.70;0.90;;;18.30;51.90;;;;;;5014454;28;20376;-84
2022/04/16 12:47:14;;;;;;;2.38;0.80;;;18.30;51.20;;;;;;5014467;28;20132;-87
2022/04/16 12:49:40;;;;;;;1.58;0.80;;;18.50;50.20;;;;;;5014760;28;20044;-86
2022/04/16 12:52:06;;;;;;;1.83;0.90;;;18.40;49.20;;;;;;5014259;28;20551;-85
2022/04/16 12:54:31;;;;;;;1.65;0.82;;;18.50;49.50;;;;;;4998061;28;20038;-85
2022/04/16 12:56:57;;;;;;;2.90;0.90;;;18.50;50.80;;;;;;5014632;28;20045;-85
2022/04/16 12:59:22;;;;;;;1.73;1.00;;;18.60;50.40;;;;;;5016101;28;20386;-85
2022/04/16 13:01:48;;;;;;;1.65;0.95;;;18.80;51.20;;;;;;5018019;28;20071;-84
2022/04/16 13:04:14;;;;;;;2.80;1.00;;;19.00;51.60;;;;;;5018707;28;20049;-86
2022/04/16 13:06:39;;;;;;;1.95;1.00;;;18.90;50.00;;;;;;5019714;28;20038;-85
2022/04/16 13:09:05;;;;;;;2.28;0.88;;;19.00;50.70;;;;;;5018713;28;20048;-83
2022/04/16 13:11:31;;;;;;;2.70;1.02;;;19.00;49.40;;;;;;5001877;28;20060;-84
2022/04/16 13:13:57;;;;;;;2.95;0.80;;;18.90;49.70;;;;;;5019016;28;20038;-82
2022/04/16 13:16:23;;;;;;;1.83;0.70;;;19.10;50.10;;;;;;5017233;28;20100;-88
2022/04/16 13:18:49;;;;;;;2.20;0.80;;;19.20;49.40;;;;;;5016954;28;20056;-80
2022/04/16 13:21:15;;;;;;;1.65;0.95;;;19.20;48.80;;;;;;5016566;28;20038;-83
2022/04/16 13:23:41;;;;;;;2.88;1.05;;;19.10;48.80;;;;;;5018568;28;20045;-87
2022/04/16 13:26:07;;;;;;;1.42;0.80;;;19.10;49.70;;;;;;5017537;28;20089;-82
2022/04/16 13:28:32;;;;;;;3.90;1.10;;;19.30;49.80;;;;;;5018683;28;20179;-83
2022/04/16 13:30:58;;;;;;;2.92;1.00;;;19.50;49.50;;;;;;5017083;28;20038;-86
2022/04/16 13:33:24;;;;;;;1.40;0.85;;;19.70;49.20;;;;;;5018869;28;20038;-84
2022/04/16 13:35:49;;;;;;;2.78;1.10;;;19.80;49.70;;;;;;5018694;28;20462;-82
2022/04/16 13:38:15;;;;;;;3.53;1.10;;;20.10;49.10;;;;;;5017621;28;20084;-83
2022/04/16 13:43:25;;;;;;;2.88;1.08;;;19.40;46.70;;;;;;5016444;28;20073;-86
2022/04/16 13:45:50;;;;;;;2.45;1.00;;;19.40;48.40;;;;;;5016242;28;20049;-82
2022/04/16 13:48:17;;;;;;;3.75;1.45;;;19.70;48.80;;;;;;5016267;28;20464;-82
2022/04/16 13:50:42;;;;;;;4.57;1.10;;;19.90;48.20;;;;;;5016015;28;20041;-82
2022/04/16 13:53:08;;;;;;;2.00;1.20;;;20.00;48.20;;;;;;5016763;28;20474;-83
2022/04/16 13:55:34;;;;;;;2.95;1.10;;;20.30;47.60;;;;;;5016552;28;20038;-83
2022/04/16 13:58:00;;;;;;;2.03;0.90;;;20.30;46.90;;;;;;5016217;28;20050;-85
2022/04/16 14:00:26;;;;;;;3.95;1.10;;;20.30;47.80;;;;;;5015994;28;20496;-85
2022/04/16 14:02:51;;;;;;;2.20;1.15;;;20.10;47.30;;;;;;5016622;28;20486;-85
2022/04/16 14:08:01;;;;;;;1.60;0.80;;;20.30;46.30;;;;;;5016067;28;20061;-85
2022/04/16 14:10:27;;;;;;;2.67;1.10;;;20.30;46.40;;;;;;5015407;28;20401;-83
2022/04/16 14:12:54;;;;;;;1.77;0.88;;;19.90;45.00;;;;;;5014159;28;20398;-82
2022/04/16 14:15:22;;;;;;;2.60;0.90;;;19.80;44.90;;;;;;5016014;28;20038;-83
2022/04/16 14:17:50;;;;;;;2.97;1.08;;;19.50;44.40;;;;;;5016357;28;20122;-81
2022/04/16 14:20:17;;;;;;;2.50;1.10;;;19.50;44.20;;;;;;5015196;28;20517;-84
2022/04/16 14:22:43;;;;;;;2.65;1.00;;;19.40;45.00;;;;;;5017376;28;20073;-83
2022/04/16 14:25:09;;;;;;;3.72;1.05;;;19.30;46.30;;;;;;5015238;28;20544;-85
2022/04/16 14:27:35;;;;;;;1.55;0.73;;;19.50;46.80;;;;;;5015799;28;20180;-83
2022/04/16 14:30:01;;;;;;;1.50;0.90;;;19.70;46.20;;;;;;5015968;28;20038;-84
2022/04/16 14:32:27;;;;;;;2.80;1.00;;;20.10;46.60;;;;;;5015293;28;20068;-83
2022/04/16 14:34:53;;;;;;;4.90;1.35;;;20.10;46.50;;;;;;5014961;28;20476;-83
2022/04/16 14:37:19;;;;;;;2.55;1.00;;;20.20;46.80;;;;;;5015433;28;20041;-84
2022/04/16 14:39:45;;;;;;;2.35;1.08;;;19.90;44.70;;;;;;5015800;28;20049;-83
2022/04/16 14:42:12;;;;;;;1.63;1.00;;;19.70;45.10;;;;;;5015660;28;20042;-85
2022/04/16 14:44:40;;;;;;;2.35;1.08;;;19.70;45.40;;;;;;5014526;28;20470;-84
2022/04/16 14:47:07;;;;;;;2.03;1.20;;;19.80;46.00;;;;;;5014225;28;20559;-83
2022/04/16 14:49:33;;;;;;;4.75;1.48;;;19.50;45.60;;;;;;5014793;28;20041;-84
2022/04/16 14:51:59;;;;;;;2.00;1.13;;;19.80;46.70;;;;;;5015004;28;20049;-81
2022/04/16 14:54:25;;;;;;;2.63;1.17;;;20.00;46.90;;;;;;5014708;28;20044;-82
2022/04/16 14:56:51;;;;;;;1.73;1.08;;;20.00;46.80;;;;;;5014015;28;20463;-83
2022/04/16 14:59:16;;;;;;;1.65;0.98;;;20.00;46.50;;;;;;4997932;28;20037;-80
2022/04/16 15:01:42;;;;;;;2.38;1.20;;;19.90;46.10;;;;;;5015249;28;20034;-83
2022/04/16 15:04:08;;;;;;;3.75;1.30;;;19.90;46.30;;;;;;4998117;28;20038;-81
2022/04/16 15:06:33;;;;;;;5.20;1.45;;;19.80;45.90;;;;;;5013997;28;20048;-81
2022/04/16 15:08:59;;;;;;;3.50;1.20;;;19.90;46.10;;;;;;4997381;28;20064;-82
2022/04/16 15:11:24;;;;;;;1.95;0.93;;;19.70;45.70;;;;;;5014265;28;20065;-85
2022/04/16 15:13:50;;;;;;;2.85;1.10;;;19.70;46.00;;;;;;5013958;28;20124;-84
2022/04/16 15:16:16;;;;;;;3.17;1.20;;;19.60;46.00;;;;;;5015644;28;20120;-82
2022/04/16 15:18:41;;;;;;;2.88;1.30;;;19.50;46.40;;;;;;5014133;28;20045;-86
2022/04/16 15:21:07;;;;;;;4.00;1.30;;;19.50;45.90;;;;;;4998452;28;20057;-83
2022/04/16 15:23:35;;;;;;;4.15;1.30;;;19.40;46.20;;;;;;5014962;28;20457;-83
2022/04/16 15:26:04;;;;;;;2.85;1.40;;;19.30;45.80;;;;;;5014203;28;20042;-83
2022/04/16 15:28:30;;;;;;;3.20;1.20;;;19.00;45.50;;;;;;4997393;28;20034;-82
2022/04/16 15:31:02;;;;;;;4.93;1.35;;;18.80;45.30;;;;;;5013497;28;20046;-81
2022/04/16 15:33:28;;;;;;;2.75;1.30;;;18.80;45.90;;;;;;5013517;28;20046;-78
2022/04/16 15:35:53;;;;;;;3.28;1.00;;;18.80;46.30;;;;;;4997299;28;20088;-84
2022/04/16 15:38:19;;;;;;;1.70;1.10;;;18.90;46.10;;;;;;5013836;28;20513;-83
2022/04/16 15:40:45;;;;;;;2.47;1.08;;;18.90;45.90;;;;;;4997756;28;20457;-83
2022/04/16 15:43:11;;;;;;;2.38;1.05;;;19.00;45.80;;;;;;5015448;28;20042;-81
2022/04/16 15:45:37;;;;;;;4.75;0.95;;;19.00;45.50;;;;;;5014123;28;20077;-80
2022/04/16 15:48:02;;;;;;;2.85;1.30;;;18.80;45.90;;;;;;5014095;28;20482;-81
2022/04/16 15:50:28;;;;;;;2.72;1.10;;;18.80;46.20;;;;;;4997396;28;20040;-84
2022/04/16 15:52:56;;;;;;;2.67;1.25;;;18.90;45.80;;;;;;5013974;28;20442;-82
2022/04/16 15:55:22;;;;;;;2.22;1.05;;;19.00;45.90;;;;;;4997914;28;20042;-84
2022/04/16 15:57:47;;;;;;;3.08;1.65;;;19.10;46.30;;;;;;5014621;28;20048;-82
2022/04/16 16:00:13;;;;;;;2.17;1.20;;;19.00;46.50;;;;;;5014183;28;20544;-82
2022/04/16 16:02:39;;;;;;;6.43;1.40;;;18.80;46.40;;;;;;5013366;28;20052;-81
2022/04/16 16:05:09;;;;;;;4.57;1.38;;;18.60;46.00;;;;;;5014665;28;20569;-81
2022/04/16 16:07:39;;;;;;;3.70;1.27;;;18.60;46.70;;;;;;5014429;28;20070;-79
2022/04/16 16:10:09;;;;;;;3.30;1.35;;;18.70;47.10;;;;;;5013077;28;20045;-80
2022/04/16 16:12:35;;;;;;;4.20;1.60;;;18.70;46.90;;;;;;5013651;28;20494;-80
2022/04/16 16:15:01;;;;;;;6.28;2.88;;;18.80;47.30;;;;;;5013907;28;20041;-81
2022/04/16 16:17:27;;;;;;;3.33;1.50;;;18.90;48.00;;;;;;5014750;28;20042;-83
2022/04/16 16:19:52;;;;;;;2.00;1.30;;;18.80;47.10;;;;;;5015718;28;20037;-82
2022/04/16 16:22:18;;;;;;;4.65;1.88;;;18.90;47.60;;;;;;5011906;28;20092;-81
2022/04/16 16:24:44;;;;;;;3.15;1.55;;;18.80;47.00;;;;;;4997328;28;20046;-83
2022/04/16 16:27:10;;;;;;;3.10;1.33;;;18.80;47.40;;;;;;4993550;28;20043;-83
2022/04/16 16:29:36;;;;;;;2.97;1.70;;;18.70;46.60;;;;;;4993972;28;20118;-83
2022/04/16 16:32:03;;;;;;;3.30;1.45;;;18.60;47.30;;;;;;4993619;28;20046;-79
2022/04/16 16:34:28;;;;;;;3.83;1.38;;;18.60;48.00;;;;;;4993350;28;20043;-83
2022/04/16 16:36:54;;;;;;;4.00;1.80;;;18.50;47.80;;;;;;4996120;28;20121;-82
2022/04/16 16:39:19;;;;;;;2.35;1.20;;;18.50;48.10;;;;;;4980699;28;20050;-80
2022/04/16 16:41:45;;;;;;;1.98;1.30;;;18.30;47.80;;;;;;4998610;28;20069;-84
2022/04/16 16:44:11;;;;;;;2.85;1.70;;;18.20;48.00;;;;;;4997230;28;20398;-83
2022/04/16 16:46:37;;;;;;;4.28;1.75;;;18.10;48.50;;;;;;4997350;28;20104;-83
2022/04/16 16:49:03;;;;;;;5.28;1.83;;;18.10;48.00;;;;;;4997226;28;20043;-83
2022/04/16 16:51:28;;;;;;;2.95;1.40;;;18.10;48.30;;;;;;4996338;28;20042;-84
2022/04/16 16:53:55;;;;;;;2.67;1.60;;;18.10;47.60;;;;;;4980465;28;20043;-83
2022/04/16 16:56:22;;;;;;;3.70;1.63;;;18.20;48.00;;;;;;4981609;28;20034;-85
2022/04/16 16:58:48;;;;;;;2.67;1.42;;;18.20;47.40;;;;;;4997845;28;20112;-82
2022/04/16 17:01:14;;;;;;;4.40;1.60;;;18.20;47.90;;;;;;4998602;28;20074;-82
2022/04/16 17:06:24;;;;;;;4.88;1.60;;;18.30;47.60;;;;;;4997022;28;20082;-82
2022/04/16 17:08:50;;;;;;;5.63;2.00;;;18.40;47.70;;;;;;4998562;28;20142;-80